createdAt,value
2018-01-19T00:01:17.658Z,14.50
2018-01-19T00:02:54.942Z,13.50
2018-01-19T00:04:39.285Z,9.75
2018-01-19T00:06:15.718Z,9.75
2018-01-19T00:07:52.893Z,8.75
2018-01-19T00:09:30.145Z,8.00
2018-01-19T00:11:07.105Z,4.00
2018-01-19T00:12:43.698Z,6.75
2018-01-19T00:14:20.077Z,8.00
2018-01-19T00:15:57.683Z,7.00
2018-01-19T00:17:35.412Z,8.50
2018-01-19T00:19:11.834Z,7.00
2018-01-19T00:20:48.255Z,7.00
2018-01-19T00:22:25.314Z,8.00
2018-01-19T00:24:02.321Z,9.75
2018-01-19T00:25:38.828Z,6.50
2018-01-19T00:27:15.456Z,5.00
2018-01-19T00:28:53.797Z,8.00
2018-01-19T00:30:31.847Z,8.25
2018-01-19T00:32:08.664Z,7.50
2018-01-19T00:33:45.219Z,5.00
2018-01-19T00:35:21.603Z,11.00
2018-01-19T00:36:58.294Z,12.00
2018-01-19T00:38:34.748Z,8.75
2018-01-19T00:40:12.100Z,8.00
2018-01-19T00:41:48.447Z,8.25
2018-01-19T00:43:26.183Z,9.25
2018-01-19T00:45:06.251Z,9.50
2018-01-19T00:46:43.062Z,11.25
2018-01-19T00:48:19.516Z,8.00
2018-01-19T00:49:56.572Z,9.75
2018-01-19T00:51:32.915Z,9.25
2018-01-19T00:53:09.396Z,11.25
2018-01-19T00:54:45.931Z,8.75
2018-01-19T00:56:23.162Z,9.25
2018-01-19T00:58:01.146Z,7.50
2018-01-19T00:59:37.645Z,7.50
2018-01-19T01:01:14.550Z,5.00
2018-01-19T01:02:52.173Z,7.25
2018-01-19T01:04:28.691Z,7.50
2018-01-19T01:06:05.948Z,7.00
2018-01-19T01:07:42.532Z,10.50
2018-01-19T01:09:20.020Z,9.00
2018-01-19T01:10:56.464Z,14.00
2018-01-19T01:12:32.878Z,11.75
2018-01-19T01:14:09.322Z,11.75
2018-01-19T01:15:46.341Z,11.00
2018-01-19T01:17:24.012Z,10.75
2018-01-19T01:19:00.351Z,12.25
2018-01-19T01:20:36.767Z,8.00
2018-01-19T01:22:14.397Z,12.75
2018-01-19T01:23:50.936Z,11.50
2018-01-19T01:25:28.492Z,12.25
2018-01-19T01:27:04.976Z,10.00
2018-01-19T01:28:41.683Z,12.75
2018-01-19T01:30:18.197Z,8.00
2018-01-19T01:31:55.523Z,16.00
2018-01-19T01:33:31.938Z,12.75
2018-01-19T01:35:08.966Z,11.00
2018-01-19T01:36:45.491Z,12.75
2018-01-19T01:38:22.010Z,14.50
2018-01-19T01:39:58.592Z,14.00
2018-01-19T01:41:35.806Z,13.25
2018-01-19T01:43:12.407Z,15.75
2018-01-19T01:44:49.541Z,12.00
2018-01-19T01:46:26.600Z,16.75
2018-01-19T01:48:03.582Z,16.00
2018-01-19T01:49:40.172Z,20.00
2018-01-19T01:51:16.578Z,13.00
2018-01-19T01:52:53.026Z,13.25
2018-01-19T01:54:29.816Z,18.50
2018-01-19T01:56:06.273Z,16.25
2018-01-19T01:57:42.638Z,11.75
2018-01-19T01:59:18.987Z,11.00
2018-01-19T02:00:56.158Z,14.00
2018-01-19T02:02:36.189Z,10.50
2018-01-19T02:04:12.664Z,10.00
2018-01-19T02:05:49.430Z,8.25
2018-01-19T02:07:27.240Z,11.50
2018-01-19T02:09:06.840Z,9.00
2018-01-19T02:10:46.554Z,11.00
2018-01-19T02:12:26.306Z,12.00
2018-01-19T02:14:04.802Z,9.00
2018-01-19T02:15:42.003Z,12.75
2018-01-19T02:17:18.656Z,11.50
2018-01-19T02:18:55.040Z,8.00
2018-01-19T02:20:32.627Z,10.75
2018-01-19T02:22:09.082Z,8.75
2018-01-19T02:23:45.557Z,11.25
2018-01-19T02:25:22.063Z,11.75
2018-01-19T02:26:58.373Z,10.75
2018-01-19T02:28:34.678Z,10.75
2018-01-19T02:30:12.184Z,12.25
2018-01-19T02:31:49.872Z,13.00
2018-01-19T02:33:26.695Z,14.50
2018-01-19T02:35:03.152Z,16.25
2018-01-19T02:36:39.976Z,13.00
2018-01-19T02:38:16.344Z,14.00
2018-01-19T02:39:52.956Z,13.25
2018-01-19T02:41:29.768Z,13.25
2018-01-19T02:43:06.050Z,22.75
2018-01-19T02:44:42.359Z,17.75
2018-01-19T02:46:23.894Z,17.25
2018-01-19T02:48:00.267Z,16.50
2018-01-19T02:49:37.366Z,19.00
2018-01-19T02:51:13.768Z,22.00
2018-01-19T02:52:50.718Z,14.25
2018-01-19T02:54:27.599Z,20.75
2018-01-19T02:56:04.075Z,15.50
2018-01-19T02:57:41.762Z,21.50
2018-01-19T02:59:18.520Z,16.50
2018-01-19T03:00:55.360Z,22.50
2018-01-19T03:02:31.787Z,18.25
2018-01-19T03:04:08.264Z,20.75
2018-01-19T03:05:45.067Z,12.75
2018-01-19T03:07:23.901Z,18.50
2018-01-19T03:09:00.612Z,15.50
2018-01-19T03:10:37.077Z,20.75
2018-01-19T03:12:13.462Z,24.75
2018-01-19T03:13:50.638Z,21.50
2018-01-19T03:15:28.279Z,27.75
2018-01-19T03:17:04.652Z,22.50
2018-01-19T03:18:41.536Z,16.25
2018-01-19T03:20:18.088Z,24.75
2018-01-19T03:21:54.426Z,15.25
2018-01-19T03:23:30.847Z,20.50
2018-01-19T03:25:07.610Z,18.25
2018-01-19T03:26:44.031Z,18.25
2018-01-19T03:28:20.370Z,22.25
2018-01-19T03:29:57.599Z,24.75
2018-01-19T03:31:34.827Z,21.50
2018-01-19T03:33:11.169Z,26.75
2018-01-19T03:34:48.200Z,25.50
2018-01-19T03:36:25.548Z,25.75
2018-01-19T03:38:03.250Z,15.25
2018-01-19T03:39:40.446Z,25.75
2018-01-19T03:41:17.627Z,28.00
2018-01-19T03:42:55.616Z,21.00
2018-01-19T03:44:32.216Z,23.50
2018-01-19T03:46:09.699Z,31.00
2018-01-19T03:47:46.145Z,30.75
2018-01-19T03:49:23.408Z,25.00
2018-01-19T03:50:59.811Z,29.25
2018-01-19T03:52:36.390Z,26.00
2018-01-19T03:54:12.774Z,26.00
2018-01-19T03:55:50.180Z,28.25
2018-01-19T03:57:26.558Z,12.25
2018-01-19T03:59:02.849Z,16.00
2018-01-19T04:00:39.198Z,19.25
2018-01-19T04:02:16.028Z,14.25
2018-01-19T04:03:52.391Z,19.75
2018-01-19T04:05:29.568Z,15.00
2018-01-19T04:07:05.986Z,14.50
2018-01-19T04:08:42.812Z,14.25
2018-01-19T04:10:19.974Z,10.00
2018-01-19T04:11:56.397Z,13.25
2018-01-19T04:13:32.818Z,15.50
2018-01-19T04:15:09.611Z,17.75
2018-01-19T04:16:46.174Z,16.25
2018-01-19T04:18:22.662Z,18.75
2018-01-19T04:19:59.025Z,19.25
2018-01-19T04:21:36.016Z,18.25
2018-01-19T04:23:12.929Z,15.75
2018-01-19T04:24:49.870Z,18.25
2018-01-19T04:26:26.324Z,16.75
2018-01-19T04:28:02.665Z,16.50
2018-01-19T04:29:40.123Z,18.75
2018-01-19T04:31:17.579Z,27.50
2018-01-19T04:32:54.006Z,18.25
2018-01-19T04:34:31.164Z,17.25
2018-01-19T04:36:07.560Z,21.75
2018-01-19T04:37:45.066Z,20.00
2018-01-19T04:39:21.823Z,19.00
2018-01-19T04:40:58.529Z,19.25
2018-01-19T04:42:35.607Z,19.50
2018-01-19T04:44:12.007Z,29.00
2018-01-19T04:45:49.634Z,16.00
2018-01-19T04:47:26.706Z,14.50
2018-01-19T04:49:03.009Z,13.50
2018-01-19T04:50:39.318Z,16.00
2018-01-19T04:52:16.246Z,14.50
2018-01-19T04:53:53.634Z,14.00
2018-01-19T04:55:30.693Z,15.25
2018-01-19T04:57:07.196Z,12.25
2018-01-19T04:58:43.683Z,17.00
2018-01-19T05:00:21.050Z,13.50
2018-01-19T05:01:57.421Z,19.25
2018-01-19T05:03:34.609Z,16.50
2018-01-19T05:05:11.035Z,16.00
2018-01-19T05:06:47.758Z,17.50
2018-01-19T05:08:24.207Z,20.25
2018-01-19T05:10:01.253Z,16.75
2018-01-19T05:11:37.659Z,17.75
2018-01-19T05:13:14.060Z,20.75
2018-01-19T05:14:50.371Z,16.25
2018-01-19T05:16:28.646Z,16.25
2018-01-19T05:18:04.984Z,12.00
2018-01-19T05:19:41.726Z,20.00
2018-01-19T05:21:18.529Z,23.00
2018-01-19T05:22:54.895Z,21.75
2018-01-19T05:24:31.486Z,20.25
2018-01-19T05:26:08.042Z,18.75
2018-01-19T05:27:45.214Z,16.50
2018-01-19T05:29:23.051Z,16.75
2018-01-19T05:31:00.048Z,21.25
2018-01-19T05:32:37.482Z,10.50
2018-01-19T05:34:13.887Z,17.50
2018-01-19T05:35:50.277Z,23.75
2018-01-19T05:37:27.253Z,18.00
2018-01-19T05:39:04.097Z,25.00
2018-01-19T05:40:40.501Z,21.50
2018-01-19T05:42:16.980Z,26.50
2018-01-19T05:43:53.530Z,31.75
2018-01-19T05:45:30.265Z,23.00
2018-01-19T05:47:06.797Z,20.50
2018-01-19T05:48:43.808Z,17.00
2018-01-19T05:50:21.042Z,14.00
2018-01-19T05:51:57.746Z,16.75
2018-01-19T05:53:34.179Z,21.25
2018-01-19T05:55:10.625Z,24.00
2018-01-19T05:56:47.012Z,21.50
2018-01-19T05:58:24.215Z,26.50
2018-01-19T06:00:00.541Z,27.50
2018-01-19T06:01:37.010Z,27.00
2018-01-19T06:03:13.797Z,24.00
2018-01-19T06:04:50.487Z,29.00
2018-01-19T06:06:26.832Z,29.00
2018-01-19T06:08:09.622Z,20.75
2018-01-19T06:09:46.070Z,28.25
2018-01-19T06:11:22.727Z,19.00
2018-01-19T06:12:59.173Z,27.00
2018-01-19T06:14:36.887Z,25.50
2018-01-19T06:16:13.388Z,26.75
2018-01-19T06:17:51.400Z,22.75
2018-01-19T06:19:27.945Z,21.75
2018-01-19T06:21:04.310Z,24.00
2018-01-19T06:22:40.623Z,29.75
2018-01-19T06:24:17.435Z,30.50
2018-01-19T06:25:53.823Z,23.25
2018-01-19T06:27:30.134Z,31.00
2018-01-19T06:29:06.621Z,23.75
2018-01-19T06:30:43.391Z,21.50
2018-01-19T06:32:20.562Z,26.25
2018-01-19T06:33:57.136Z,27.25
2018-01-19T06:35:33.769Z,20.50
2018-01-19T06:37:16.131Z,26.50
2018-01-19T06:38:52.988Z,24.75
2018-01-19T06:40:29.369Z,22.75
2018-01-19T06:42:06.660Z,36.25
2018-01-19T06:43:43.453Z,26.75
2018-01-19T06:45:20.012Z,25.00
2018-01-19T06:46:56.575Z,31.75
2018-01-19T06:48:32.888Z,20.50
2018-01-19T06:50:09.342Z,22.75
2018-01-19T06:51:45.685Z,19.75
2018-01-19T06:53:23.172Z,25.50
2018-01-19T06:55:00.415Z,19.25
2018-01-19T06:56:37.092Z,17.00
2018-01-19T06:58:13.460Z,22.50
2018-01-19T06:59:50.057Z,33.75
2018-01-19T07:01:26.495Z,22.25
2018-01-19T07:03:03.091Z,26.25
2018-01-19T07:04:39.600Z,22.25
2018-01-19T07:06:16.014Z,23.50
2018-01-19T07:07:53.223Z,26.00
2018-01-19T07:09:29.630Z,22.00
2018-01-19T07:11:06.238Z,26.50
2018-01-19T07:12:43.704Z,20.75
2018-01-19T07:14:20.272Z,20.50
2018-01-19T07:15:57.328Z,26.75
2018-01-19T07:17:33.809Z,24.50
2018-01-19T07:19:10.395Z,18.50
2018-01-19T07:20:46.737Z,25.50
2018-01-19T07:22:24.237Z,26.50
2018-01-19T07:24:01.404Z,28.75
2018-01-19T07:25:37.827Z,22.25
2018-01-19T07:27:14.191Z,20.00
2018-01-19T07:28:50.997Z,23.50
2018-01-19T07:30:27.454Z,25.50
2018-01-19T07:32:03.861Z,20.75
2018-01-19T07:33:40.414Z,21.25
2018-01-19T07:35:17.197Z,21.75
2018-01-19T07:36:54.465Z,22.00
2018-01-19T07:38:31.863Z,24.25
2018-01-19T07:40:08.393Z,29.00
2018-01-19T07:41:45.049Z,24.75
2018-01-19T07:43:21.648Z,13.00
2018-01-19T07:44:59.092Z,20.25
2018-01-19T07:46:35.853Z,17.25
2018-01-19T07:48:12.568Z,12.00
2018-01-19T07:49:48.860Z,21.00
2018-01-19T07:51:25.292Z,22.25
2018-01-19T07:53:01.764Z,19.50
2018-01-19T07:54:38.924Z,31.25
2018-01-19T07:56:15.279Z,18.50
2018-01-19T07:57:51.664Z,18.50
2018-01-19T07:59:28.252Z,24.00
2018-01-19T08:01:05.733Z,17.50
2018-01-19T08:02:42.249Z,22.50
2018-01-19T08:04:18.714Z,24.00
2018-01-19T08:05:55.511Z,17.25
2018-01-19T08:07:41.096Z,21.50
2018-01-19T08:09:17.511Z,14.00
2018-01-19T08:10:53.956Z,31.25
2018-01-19T08:12:30.351Z,19.50
2018-01-19T08:14:07.045Z,23.25
2018-01-19T08:15:43.539Z,18.50
2018-01-19T08:17:20.720Z,20.25
2018-01-19T08:18:58.109Z,28.50
2018-01-19T08:20:34.980Z,23.50
2018-01-19T08:22:11.531Z,13.75
2018-01-19T08:23:47.981Z,21.00
2018-01-19T08:25:25.231Z,20.00
2018-01-19T08:27:02.140Z,27.00
2018-01-19T08:28:38.581Z,26.00
2018-01-19T08:30:17.356Z,27.00
2018-01-19T08:31:54.607Z,23.00
2018-01-19T08:33:31.446Z,19.50
2018-01-19T08:35:07.779Z,24.00
2018-01-19T08:36:53.403Z,26.75
2018-01-19T08:38:29.830Z,25.75
2018-01-19T08:40:06.315Z,26.00
2018-01-19T08:41:42.725Z,23.75
2018-01-19T08:43:20.570Z,13.50
2018-01-19T08:44:57.000Z,22.50
2018-01-19T08:46:34.253Z,22.75
2018-01-19T08:48:10.652Z,26.00
2018-01-19T08:49:48.462Z,24.00
2018-01-19T08:51:24.936Z,27.50
2018-01-19T08:53:01.978Z,24.75
2018-01-19T08:54:38.419Z,29.50
2018-01-19T08:56:15.562Z,20.75
2018-01-19T08:57:52.227Z,19.50
2018-01-19T08:59:29.402Z,28.50
2018-01-19T09:01:05.906Z,20.00
2018-01-19T09:02:42.385Z,22.00
2018-01-19T09:04:19.664Z,18.00
2018-01-19T09:05:57.349Z,24.75
2018-01-19T09:07:33.759Z,27.00
2018-01-19T09:09:11.152Z,25.00
2018-01-19T09:10:47.665Z,23.25
2018-01-19T09:12:25.684Z,23.00
2018-01-19T09:14:02.244Z,28.00
2018-01-19T09:15:39.542Z,22.25
2018-01-19T09:17:16.271Z,29.75
2018-01-19T09:18:52.785Z,25.25
2018-01-19T09:20:29.883Z,29.25
2018-01-19T09:22:06.364Z,22.25
2018-01-19T09:23:42.795Z,23.00
2018-01-19T09:25:19.273Z,20.75
2018-01-19T09:26:55.930Z,23.00
2018-01-19T09:28:32.290Z,23.75
2018-01-19T09:30:08.864Z,26.25
2018-01-19T09:31:45.396Z,25.75
2018-01-19T09:33:22.013Z,19.75
2018-01-19T09:34:58.637Z,25.50
2018-01-19T09:36:35.233Z,26.00
2018-01-19T09:38:12.507Z,21.50
2018-01-19T09:39:49.056Z,25.25
2018-01-19T09:41:25.561Z,23.25
2018-01-19T09:43:02.019Z,24.25
2018-01-19T09:44:38.728Z,19.50
2018-01-19T09:46:15.506Z,27.25
2018-01-19T09:47:52.177Z,22.50
2018-01-19T09:49:28.609Z,23.25
2018-01-19T09:51:06.584Z,24.25
2018-01-19T09:52:43.796Z,22.00
2018-01-19T09:54:20.345Z,19.00
2018-01-19T09:55:56.788Z,28.50
2018-01-19T09:57:33.636Z,26.75
2018-01-19T09:59:10.788Z,21.50
2018-01-19T10:00:47.587Z,24.25
2018-01-19T10:02:24.102Z,19.00
2018-01-19T10:04:01.141Z,20.25
2018-01-19T10:05:37.870Z,18.00
2018-01-19T10:07:14.994Z,20.50
2018-01-19T10:08:51.530Z,20.00
2018-01-19T10:10:28.915Z,18.50
2018-01-19T10:12:06.047Z,27.50
2018-01-19T10:13:42.550Z,21.50
2018-01-19T10:15:19.082Z,20.50
2018-01-19T10:16:56.104Z,14.25
2018-01-19T10:18:32.655Z,20.25
2018-01-19T10:20:09.176Z,13.25
2018-01-19T10:21:46.566Z,18.00
2018-01-19T10:23:24.787Z,12.00
2018-01-19T10:25:01.227Z,16.75
2018-01-19T10:26:38.480Z,19.50
2018-01-19T10:28:14.864Z,17.50
2018-01-19T10:29:51.750Z,7.25
2018-01-19T10:31:29.962Z,22.50
2018-01-19T10:33:06.536Z,16.25
2018-01-19T10:34:43.142Z,16.50
2018-01-19T10:36:19.945Z,17.75
2018-01-19T10:37:56.499Z,14.75
2018-01-19T10:39:33.020Z,19.75
2018-01-19T10:41:09.701Z,15.00
2018-01-19T10:42:46.668Z,16.25
2018-01-19T10:44:23.671Z,15.25
2018-01-19T10:46:00.924Z,12.75
2018-01-19T10:47:37.274Z,17.50
2018-01-19T10:49:14.176Z,21.00
2018-01-19T10:50:50.637Z,18.50
2018-01-19T10:52:27.305Z,12.50
2018-01-19T10:54:03.823Z,13.00
2018-01-19T10:55:41.548Z,12.00
2018-01-19T10:57:18.133Z,17.50
2018-01-19T10:58:54.656Z,14.25
2018-01-19T11:00:31.222Z,14.00
2018-01-19T11:02:08.226Z,10.50
2018-01-19T11:03:44.682Z,11.50
2018-01-19T11:07:05.319Z,15.75
2018-01-19T11:08:42.267Z,13.75
2018-01-19T11:10:19.523Z,10.50
2018-01-19T11:11:56.928Z,14.00
2018-01-19T11:13:34.015Z,13.75
2018-01-19T11:15:11.696Z,16.25
2018-01-19T11:16:50.237Z,17.00
2018-01-19T11:18:27.419Z,14.25
2018-01-19T11:20:04.136Z,9.50
2018-01-19T11:21:41.068Z,14.00
2018-01-19T11:23:17.968Z,14.25
2018-01-19T11:24:56.290Z,9.25
2018-01-19T11:26:32.663Z,15.25
2018-01-19T11:28:09.705Z,10.25
2018-01-19T11:29:48.828Z,12.00
2018-01-19T11:31:25.982Z,15.00
2018-01-19T11:33:02.391Z,13.25
2018-01-19T11:34:39.542Z,19.75
2018-01-19T11:39:10.560Z,12.00
2018-01-19T11:40:47.884Z,9.00
2018-01-19T11:42:24.304Z,11.00
2018-01-19T11:44:00.641Z,11.50
2018-01-19T11:45:37.456Z,16.25
2018-01-19T11:47:14.759Z,11.50
2018-01-19T11:48:52.338Z,13.75
2018-01-19T11:50:28.982Z,11.00
2018-01-19T11:52:05.630Z,12.75
2018-01-19T11:53:43.239Z,14.50
2018-01-19T11:55:19.944Z,12.25
2018-01-19T11:56:56.392Z,15.50
2018-01-19T11:58:32.826Z,15.00
2018-01-19T12:00:10.452Z,11.50
2018-01-19T12:01:47.509Z,17.00
2018-01-19T12:03:25.119Z,14.50
2018-01-19T12:05:02.384Z,15.25
2018-01-19T12:06:40.367Z,15.25
2018-01-19T12:08:17.545Z,18.25
2018-01-19T12:09:54.635Z,11.00
2018-01-19T12:11:31.036Z,18.75
2018-01-19T12:13:07.621Z,15.00
2018-01-19T12:14:43.929Z,11.00
2018-01-19T12:16:20.433Z,7.00
2018-01-19T12:17:56.717Z,15.50
2018-01-19T12:19:33.463Z,14.00
2018-01-19T12:21:09.945Z,12.00
2018-01-19T12:22:47.433Z,12.50
2018-01-19T12:24:24.395Z,16.00
2018-01-19T12:26:28.328Z,11.75
2018-01-19T12:28:07.950Z,11.50
2018-01-19T12:29:45.419Z,14.50
2018-01-19T12:31:23.271Z,12.25
2018-01-19T12:32:59.798Z,20.00
2018-01-19T12:34:37.205Z,21.50
2018-01-19T12:36:13.661Z,17.75
2018-01-19T12:37:50.434Z,10.75
2018-01-19T12:39:26.902Z,16.00
2018-01-19T12:41:03.500Z,17.25
2018-01-19T12:42:40.201Z,13.00
2018-01-19T12:44:17.096Z,13.25
2018-01-19T12:45:54.783Z,16.50
2018-01-19T12:47:31.388Z,22.25
2018-01-19T12:49:07.877Z,16.75
2018-01-19T12:50:44.642Z,14.25
2018-01-19T12:52:21.171Z,15.50
2018-01-19T12:53:57.693Z,18.75
2018-01-19T12:55:34.063Z,18.75
2018-01-19T12:57:11.736Z,16.50
2018-01-19T12:58:48.188Z,10.50
2018-01-19T13:00:27.587Z,20.75
2018-01-19T13:02:04.331Z,12.25
2018-01-19T13:03:41.023Z,17.00
2018-01-19T13:05:17.405Z,14.75
2018-01-19T13:06:54.221Z,16.00
2018-01-19T13:08:30.715Z,9.00
2018-01-19T13:10:07.709Z,13.00
2018-01-19T13:11:46.157Z,16.75
2018-01-19T13:13:24.155Z,13.75
2018-01-19T13:15:00.983Z,8.75
2018-01-19T13:16:38.159Z,12.00
2018-01-19T13:18:14.451Z,12.00
2018-01-19T13:19:50.874Z,11.75
2018-01-19T13:21:28.035Z,13.00
2018-01-19T13:23:05.847Z,10.00
2018-01-19T13:24:43.064Z,11.00
2018-01-19T13:26:20.280Z,14.50
2018-01-19T13:27:58.417Z,12.50
2018-01-19T13:29:34.777Z,6.50
2018-01-19T13:31:11.445Z,8.25
2018-01-19T13:32:48.196Z,14.75
2018-01-19T13:34:25.864Z,12.50
2018-01-19T13:36:03.054Z,14.75
2018-01-19T13:37:39.624Z,14.00
2018-01-19T13:39:17.079Z,9.25
2018-01-19T13:40:53.846Z,8.75
2018-01-19T13:42:31.378Z,13.00
2018-01-19T13:44:09.161Z,10.75
2018-01-19T13:45:48.540Z,16.25
2018-01-19T13:47:26.736Z,8.25
2018-01-19T13:49:04.183Z,6.75
2018-01-19T13:50:41.832Z,6.75
2018-01-19T13:52:19.236Z,10.75
2018-01-19T13:53:56.656Z,12.50
2018-01-19T13:55:33.539Z,9.50
2018-01-19T13:57:11.469Z,13.25
2018-01-19T13:58:49.942Z,16.00
2018-01-19T14:00:30.220Z,13.00
2018-01-19T14:02:09.121Z,12.00
2018-01-19T14:03:46.585Z,10.50
2018-01-19T14:05:23.768Z,10.00
2018-01-19T14:07:01.032Z,11.50
2018-01-19T14:08:38.356Z,11.50
2018-01-19T14:10:17.298Z,12.25
2018-01-19T14:11:54.024Z,9.00
2018-01-19T14:13:30.508Z,7.50
2018-01-19T14:15:10.335Z,11.00
2018-01-19T14:16:47.355Z,18.25
2018-01-19T14:18:24.529Z,9.00
2018-01-19T14:20:03.908Z,14.25
2018-01-19T14:21:43.931Z,15.50
2018-01-19T14:23:21.811Z,13.00
2018-01-19T14:25:00.545Z,16.00
2018-01-19T14:26:39.884Z,13.75
2018-01-19T14:28:18.976Z,8.50
2018-01-19T14:29:56.205Z,10.00
2018-01-19T14:31:37.265Z,11.75
2018-01-19T14:33:14.226Z,12.00
2018-01-19T14:34:52.243Z,9.00
2018-01-19T14:36:30.781Z,9.00
2018-01-19T14:38:08.078Z,9.25
2018-01-19T14:39:45.232Z,10.00
2018-01-19T14:41:23.094Z,8.75
2018-01-19T14:43:01.586Z,9.25
2018-01-19T14:44:39.373Z,9.75
2018-01-19T14:46:16.084Z,8.00
2018-01-19T14:47:54.931Z,8.50
2018-01-19T14:49:33.230Z,7.00
2018-01-19T14:51:13.875Z,6.00
2018-01-19T14:52:54.179Z,9.00
2018-01-19T14:54:33.932Z,6.00
2018-01-19T14:56:11.398Z,5.00
2018-01-19T14:57:51.125Z,8.00
2018-01-19T14:59:30.456Z,6.00
2018-01-19T15:01:09.924Z,7.50
2018-01-19T15:02:48.548Z,6.50
2018-01-19T15:04:26.888Z,4.75
2018-01-19T15:06:05.610Z,5.00
2018-01-19T15:07:42.891Z,9.50
2018-01-19T15:09:22.982Z,6.00
2018-01-19T15:11:04.415Z,5.25
2018-01-19T15:12:45.304Z,11.00
2018-01-19T15:14:25.137Z,7.00
2018-01-19T15:16:06.857Z,9.25
2018-01-19T15:17:46.756Z,8.75
2018-01-19T15:19:28.148Z,8.00
2018-01-19T15:21:10.147Z,13.00
2018-01-19T15:22:51.424Z,9.25
2018-01-19T15:24:31.358Z,10.00
2018-01-19T15:26:13.609Z,9.25
2018-01-19T15:27:54.704Z,8.00
2018-01-19T15:29:36.352Z,8.50
2018-01-19T15:31:18.037Z,5.75
2018-01-19T15:32:57.118Z,9.25
2018-01-19T15:34:35.197Z,8.00
2018-01-19T15:36:13.759Z,9.50
2018-01-19T15:37:55.307Z,10.00
2018-01-19T15:39:34.801Z,6.75
2018-01-19T15:41:12.791Z,5.75
2018-01-19T15:42:54.587Z,9.00
2018-01-19T15:44:35.356Z,8.25
2018-01-19T15:46:18.844Z,9.00
2018-01-19T15:48:05.032Z,9.50
2018-01-19T15:49:45.971Z,9.00
2018-01-19T15:51:27.867Z,19.75
2018-01-19T15:53:12.068Z,8.00
2018-01-19T15:54:51.158Z,9.00
2018-01-19T15:56:30.897Z,9.75
2018-01-19T15:58:10.558Z,9.00
2018-01-19T15:59:48.096Z,9.75
2018-01-19T16:01:29.753Z,7.50
2018-01-19T16:03:11.419Z,8.00
2018-01-19T16:04:50.656Z,9.00
2018-01-19T16:06:29.090Z,7.25
2018-01-19T16:08:07.850Z,11.50
2018-01-19T16:09:47.496Z,9.00
2018-01-19T16:11:27.860Z,13.00
2018-01-19T16:13:07.879Z,11.50
2018-01-19T16:14:49.209Z,9.50
2018-01-19T16:16:31.308Z,9.00
2018-01-19T16:18:13.619Z,10.00
2018-01-19T16:19:55.268Z,8.00
2018-01-19T16:21:36.746Z,9.50
2018-01-19T16:23:20.568Z,13.00
2018-01-19T16:25:00.239Z,11.25
2018-01-19T16:26:39.933Z,8.00
2018-01-19T16:28:19.944Z,9.50
2018-01-19T16:29:58.825Z,9.00
2018-01-19T16:31:40.642Z,12.50
2018-01-19T16:33:20.257Z,8.75
2018-01-19T16:34:58.922Z,12.75
2018-01-19T16:36:38.836Z,17.00
2018-01-19T16:38:21.574Z,13.00
2018-01-19T16:40:00.732Z,13.50
2018-01-19T16:41:41.657Z,11.25
2018-01-19T16:43:20.794Z,13.00
2018-01-19T16:45:01.441Z,16.50
2018-01-19T16:46:45.839Z,17.75
2018-01-19T16:48:24.056Z,26.50
2018-01-19T16:50:04.827Z,16.00
2018-01-19T16:51:47.998Z,9.00
2018-01-19T16:53:31.323Z,10.50
2018-01-19T16:55:12.080Z,12.25
2018-01-19T16:56:54.285Z,24.25
2018-01-19T16:58:37.483Z,20.50
2018-01-19T17:00:20.943Z,18.50
2018-01-19T17:02:04.111Z,12.25
2018-01-19T17:03:47.311Z,15.75
2018-01-19T17:05:30.231Z,12.50
2018-01-19T17:07:11.110Z,13.25
2018-01-19T17:08:54.734Z,17.75
2018-01-19T17:10:35.470Z,19.00
2018-01-19T17:12:15.023Z,20.75
2018-01-19T17:13:54.606Z,16.75
2018-01-19T17:15:33.618Z,16.00
2018-01-19T17:17:14.606Z,13.75
2018-01-19T17:18:53.690Z,15.50
2018-01-19T17:20:34.910Z,13.25
2018-01-19T17:22:14.447Z,18.00
2018-01-19T17:23:55.448Z,15.75
2018-01-19T17:25:35.972Z,15.00
2018-01-19T17:27:15.319Z,17.75
2018-01-19T17:28:56.718Z,15.75
2018-01-19T17:30:41.544Z,11.50
2018-01-19T17:32:22.032Z,17.75
2018-01-19T17:34:03.167Z,15.25
2018-01-19T17:35:49.233Z,18.25
2018-01-19T17:37:30.148Z,14.00
2018-01-19T17:39:11.475Z,19.00
2018-01-19T17:42:41.677Z,25.50
2018-01-19T17:44:23.980Z,20.75
2018-01-19T17:46:05.524Z,19.25
2018-01-19T17:47:47.890Z,15.50
2018-01-19T17:49:28.685Z,19.50
2018-01-19T17:51:09.659Z,18.00
2018-01-19T17:52:50.761Z,17.00
2018-01-19T17:54:31.516Z,19.50
2018-01-19T17:56:13.436Z,16.50
2018-01-19T17:57:53.149Z,16.00
2018-01-19T17:59:33.226Z,20.25
2018-01-19T18:01:14.667Z,20.25
2018-01-19T18:02:57.621Z,17.00
2018-01-19T18:04:41.488Z,14.25
2018-01-19T18:06:22.832Z,15.25
2018-01-19T18:08:07.233Z,23.00
2018-01-19T18:09:48.847Z,15.50
2018-01-19T18:11:29.881Z,17.00
2018-01-19T18:13:11.266Z,20.50
2018-01-19T18:14:53.020Z,15.25
2018-01-19T18:16:36.352Z,16.25
2018-01-19T18:18:17.631Z,17.00
2018-01-19T18:19:58.747Z,16.00
2018-01-19T18:21:42.291Z,16.25
2018-01-19T18:23:24.350Z,13.00
2018-01-19T18:25:07.329Z,18.25
2018-01-19T18:26:49.641Z,15.50
2018-01-19T18:28:31.676Z,17.50
2018-01-19T18:30:15.909Z,17.50
2018-01-19T18:31:59.074Z,17.00
2018-01-19T18:33:41.437Z,12.75
2018-01-19T18:35:24.713Z,17.25
2018-01-19T18:37:09.653Z,19.50
2018-01-19T18:38:52.846Z,18.25
2018-01-19T18:40:34.934Z,18.75
2018-01-19T18:42:16.057Z,20.50
2018-01-19T18:43:58.176Z,23.25
2018-01-19T18:45:41.617Z,13.75
2018-01-19T18:47:22.673Z,15.00
2018-01-19T18:49:06.054Z,18.00
2018-01-19T18:50:47.360Z,15.75
2018-01-19T18:52:28.692Z,25.00
2018-01-19T18:54:11.415Z,22.00
2018-01-19T18:55:54.934Z,20.25
2018-01-19T18:57:37.709Z,15.50
2018-01-19T18:59:21.245Z,21.75
2018-01-19T19:01:02.947Z,19.00
2018-01-19T19:02:44.450Z,16.75
2018-01-19T19:04:26.157Z,20.00
2018-01-19T19:06:06.630Z,17.00
2018-01-19T19:07:48.890Z,16.50
2018-01-19T19:09:32.404Z,21.50
2018-01-19T19:11:14.618Z,39.00
2018-01-19T19:12:55.717Z,26.75
2018-01-19T19:14:37.613Z,23.75
2018-01-19T19:16:20.143Z,26.25
2018-01-19T19:18:01.840Z,34.50
2018-01-19T19:19:43.369Z,22.00
2018-01-19T19:21:26.431Z,28.75
2018-01-19T19:23:10.140Z,21.50
2018-01-19T19:24:57.462Z,24.25
2018-01-19T19:26:42.903Z,23.25
2018-01-19T19:28:25.939Z,19.50
2018-01-19T19:30:06.776Z,19.75
2018-01-19T19:31:48.232Z,21.25
2018-01-19T19:33:29.484Z,24.75
2018-01-19T19:35:10.573Z,17.75
2018-01-19T19:36:51.479Z,20.00
2018-01-19T19:38:31.925Z,16.75
2018-01-19T19:40:10.148Z,18.75
2018-01-19T19:41:48.319Z,18.75
2018-01-19T19:43:27.246Z,18.50
2018-01-19T19:45:04.205Z,17.25
2018-01-19T19:46:44.029Z,24.50
2018-01-19T19:48:22.593Z,23.00
2018-01-19T19:50:02.484Z,23.75
2018-01-19T19:51:43.623Z,20.25
2018-01-19T19:53:37.616Z,27.25
2018-01-19T19:55:16.457Z,20.50
2018-01-19T19:56:54.684Z,23.75
2018-01-19T19:58:34.106Z,18.75
2018-01-19T20:00:12.148Z,23.00
2018-01-19T20:01:53.446Z,19.75
2018-01-19T20:03:31.777Z,24.75
2018-01-19T20:05:08.553Z,20.75
2018-01-19T20:06:46.446Z,21.75
2018-01-19T20:08:24.107Z,23.75
2018-01-19T20:10:02.661Z,22.50
2018-01-19T20:11:41.302Z,22.75
2018-01-19T20:13:21.599Z,22.25
2018-01-19T20:14:59.470Z,31.00
2018-01-19T20:16:39.203Z,24.75
2018-01-19T20:18:19.099Z,23.25
2018-01-19T20:19:58.388Z,17.00
2018-01-19T20:21:36.722Z,29.50
2018-01-19T20:23:15.547Z,37.25
2018-01-19T20:24:55.959Z,27.75
2018-01-19T20:26:36.740Z,23.00
2018-01-19T20:28:14.792Z,19.25
2018-01-19T20:29:52.637Z,22.50
2018-01-19T20:31:30.357Z,15.50
2018-01-19T20:33:10.596Z,20.75
2018-01-19T20:34:48.167Z,22.00
2018-01-19T20:36:27.120Z,19.50
2018-01-19T20:38:07.358Z,21.00
2018-01-19T20:39:45.057Z,20.00
2018-01-19T20:41:26.487Z,22.50
2018-01-19T20:43:03.584Z,17.75
2018-01-19T20:44:40.784Z,20.00
2018-01-19T20:46:18.297Z,20.00
2018-01-19T20:47:55.736Z,20.50
2018-01-19T20:49:32.509Z,21.75
2018-01-19T20:51:09.855Z,20.50
2018-01-19T20:52:46.627Z,16.25
2018-01-19T20:54:23.209Z,14.50
2018-01-19T20:56:01.442Z,19.50
2018-01-19T20:57:39.135Z,16.00
2018-01-19T20:59:15.990Z,15.75
2018-01-19T21:00:52.932Z,15.75
2018-01-19T21:02:29.980Z,29.50
2018-01-19T21:04:07.565Z,19.75
2018-01-19T21:05:44.337Z,18.25
2018-01-19T21:07:21.877Z,18.75
2018-01-19T21:08:59.319Z,18.25
2018-01-19T21:10:36.553Z,16.75
2018-01-19T21:12:13.190Z,17.50
2018-01-19T21:13:50.093Z,21.75
2018-01-19T21:15:28.854Z,14.25
2018-01-19T21:17:06.258Z,18.50